Metar z połowy godziny Komunikat METAR ze strony awiacja.imgw.pl Metar G00 EPRZ METAR EPRZ 230730Z 27008KT 240V300 9999 FEW026 07/00 Q1021 =